Time;durP1;ratioP1;P1;durP2;ratioP2;P2;SDS_P1;SDS_P2;PMS_P1;PMS_P2;Temp;Humidity;BMP_temperature;BMP_pressure;BME280_temperature;BME280_humidity;BME280_pressure;Samples;Min_cycle;Max_cycle;Signal;HPM_P1;HPM_P2
2022/03/16 00:02:20;;;;;;;63.50;30.50;;;3.50;99.90;;;;;;6159028;23;20016;-74
2022/03/16 00:04:53;;;;;;;59.97;30.73;;;3.60;99.90;;;;;;6184003;23;20017;-72
2022/03/16 00:07:20;;;;;;;63.47;32.40;;;3.60;99.90;;;;;;6184254;23;20096;-72
2022/03/16 00:09:46;;;;;;;63.83;32.55;;;3.60;99.90;;;;;;6183907;23;20423;-72
2022/03/16 00:12:13;;;;;;;83.32;37.63;;;3.70;99.90;;;;;;6183809;23;20019;-72
2022/03/16 00:14:40;;;;;;;71.28;34.55;;;3.60;99.90;;;;;;6208954;23;20083;-72
2022/03/16 00:17:06;;;;;;;73.35;36.20;;;3.70;99.90;;;;;;6184098;23;20013;-72
2022/03/16 00:19:32;;;;;;;64.70;31.38;;;3.70;99.90;;;;;;6183765;23;20020;-72
2022/03/16 00:22:00;;;;;;;58.45;29.33;;;3.70;99.90;;;;;;6184273;23;20012;-72
2022/03/16 00:24:25;;;;;;;70.15;33.05;;;3.70;99.90;;;;;;6183368;23;20066;-72
2022/03/16 00:26:51;;;;;;;64.68;33.17;;;3.70;99.90;;;;;;6159240;23;20464;-72
2022/03/16 00:29:17;;;;;;;59.83;30.65;;;3.60;99.90;;;;;;6183841;23;20067;-72
2022/03/16 00:31:43;;;;;;;60.80;31.98;;;3.60;99.90;;;;;;6183680;23;20017;-72
2022/03/16 00:34:08;;;;;;;56.13;29.75;;;3.60;99.90;;;;;;6183551;23;20078;-72
2022/03/16 00:36:34;;;;;;;49.72;27.75;;;3.60;99.90;;;;;;6183607;23;20013;-71
2022/03/16 00:39:00;;;;;;;51.08;27.65;;;3.50;99.90;;;;;;6210565;23;20024;-72
2022/03/16 00:41:26;;;;;;;55.03;30.80;;;3.50;99.90;;;;;;6183843;23;20099;-72
2022/03/16 00:43:52;;;;;;;55.42;28.50;;;3.50;99.90;;;;;;6186064;23;20020;-72
2022/03/16 00:46:18;;;;;;;75.55;37.00;;;3.50;99.90;;;;;;6185233;23;20021;-72
2022/03/16 00:48:45;;;;;;;89.85;41.97;;;3.50;99.90;;;;;;6185960;23;20032;-72
2022/03/16 00:51:11;;;;;;;100.75;42.88;;;3.50;99.90;;;;;;6185298;23;20031;-72
2022/03/16 00:53:39;;;;;;;85.88;40.72;;;3.60;99.90;;;;;;6161063;23;20013;-72
2022/03/16 00:56:06;;;;;;;115.38;44.83;;;3.70;99.90;;;;;;6185730;23;20522;-72
2022/03/16 00:58:32;;;;;;;122.15;47.85;;;3.80;99.90;;;;;;6185733;23;20016;-72
2022/03/16 01:00:58;;;;;;;111.25;45.08;;;3.80;99.90;;;;;;6185226;23;20017;-72
2022/03/16 01:03:25;;;;;;;132.05;51.13;;;3.80;99.90;;;;;;6211982;23;20020;-72
2022/03/16 01:05:50;;;;;;;114.75;45.75;;;3.90;99.90;;;;;;6185591;23;20012;-72
2022/03/16 01:08:16;;;;;;;136.80;50.33;;;3.90;99.90;;;;;;6185353;23;20348;-72
2022/03/16 01:10:42;;;;;;;128.32;50.83;;;4.00;99.90;;;;;;6211796;23;20031;-72
2022/03/16 01:13:08;;;;;;;89.47;40.92;;;4.00;99.90;;;;;;6184598;23;20012;-72
2022/03/16 01:15:34;;;;;;;81.57;39.33;;;4.00;99.90;;;;;;6185387;23;20518;-72
2022/03/16 01:17:59;;;;;;;100.28;41.90;;;3.90;99.90;;;;;;6185568;23;20102;-72
2022/03/16 01:20:25;;;;;;;98.00;44.53;;;3.90;99.90;;;;;;6160530;23;20023;-72
2022/03/16 01:22:51;;;;;;;86.63;39.30;;;3.90;99.90;;;;;;6160664;23;20074;-72
2022/03/16 01:25:17;;;;;;;81.53;39.78;;;3.80;99.90;;;;;;6185513;23;20452;-72
2022/03/16 01:27:43;;;;;;;92.57;40.08;;;3.90;99.90;;;;;;6185423;23;20016;-72
2022/03/16 01:30:09;;;;;;;80.90;40.05;;;3.80;99.90;;;;;;6184967;23;20029;-72
2022/03/16 01:32:35;;;;;;;78.03;35.33;;;3.70;99.90;;;;;;6185244;23;20090;-72
2022/03/16 01:35:01;;;;;;;72.40;35.25;;;3.70;99.90;;;;;;6185210;23;20021;-72
2022/03/16 01:37:27;;;;;;;61.83;32.10;;;3.60;99.90;;;;;;6184753;23;20340;-72
2022/03/16 01:39:53;;;;;;;67.55;34.80;;;3.60;99.90;;;;;;6185206;23;20407;-72
2022/03/16 01:42:20;;;;;;;68.18;34.58;;;3.50;99.90;;;;;;6185270;23;20017;-72
2022/03/16 01:44:54;;;;;;;67.45;33.63;;;3.50;99.90;;;;;;6184836;23;20025;-72
2022/03/16 01:47:22;;;;;;;67.38;33.33;;;3.40;99.90;;;;;;6183387;23;20183;-72
2022/03/16 01:49:49;;;;;;;58.20;30.38;;;3.40;99.90;;;;;;6182008;23;20013;-72
2022/03/16 01:52:19;;;;;;;67.97;33.83;;;3.30;99.90;;;;;;6183010;23;20043;-72
2022/03/16 01:54:45;;;;;;;70.65;35.13;;;3.60;99.90;;;;;;6184276;23;20021;-72
2022/03/16 01:57:11;;;;;;;71.80;34.10;;;3.30;99.90;;;;;;6156990;23;20016;-73
2022/03/16 01:59:39;;;;;;;62.40;32.60;;;3.30;99.90;;;;;;6181393;23;20020;-72
2022/03/16 02:02:06;;;;;;;87.68;39.42;;;3.30;99.90;;;;;;6184661;23;20055;-72
2022/03/16 02:04:32;;;;;;;67.03;34.47;;;3.30;99.90;;;;;;6184888;23;20017;-72
2022/03/16 02:06:58;;;;;;;71.75;34.65;;;3.20;99.90;;;;;;6184830;23;20023;-72
2022/03/16 02:09:24;;;;;;;76.35;34.60;;;3.40;99.90;;;;;;6183696;23;20012;-72
2022/03/16 02:11:50;;;;;;;68.78;33.10;;;3.20;99.90;;;;;;6184300;23;20412;-72
2022/03/16 02:14:17;;;;;;;77.30;36.63;;;3.30;99.90;;;;;;6184733;23;20020;-72
2022/03/16 02:16:45;;;;;;;70.03;33.63;;;3.20;99.90;;;;;;6209921;23;20075;-72
2022/03/16 02:19:11;;;;;;;88.32;40.20;;;3.20;99.90;;;;;;6160607;23;20443;-72
2022/03/16 02:21:40;;;;;;;93.43;39.50;;;3.40;99.90;;;;;;6184789;23;20090;-72
2022/03/16 02:24:06;;;;;;;108.10;46.55;;;3.30;99.90;;;;;;6211651;23;20074;-73
2022/03/16 02:26:33;;;;;;;138.27;49.22;;;3.30;99.90;;;;;;6211470;23;20401;-72
2022/03/16 02:28:58;;;;;;;94.93;41.10;;;3.40;99.90;;;;;;6211326;23;20143;-72
2022/03/16 02:31:25;;;;;;;78.32;35.80;;;3.40;99.90;;;;;;6184230;23;20457;-72
2022/03/16 02:33:51;;;;;;;86.20;38.42;;;3.30;99.90;;;;;;6159683;23;20457;-73
2022/03/16 02:36:17;;;;;;;72.85;35.20;;;3.20;99.90;;;;;;6184828;23;20352;-72
2022/03/16 02:38:43;;;;;;;63.40;31.67;;;3.20;99.90;;;;;;6184564;23;20095;-72
2022/03/16 02:41:09;;;;;;;101.05;32.72;;;3.10;99.90;;;;;;6184793;23;20023;-73
2022/03/16 02:43:35;;;;;;;134.20;40.35;;;3.10;99.90;;;;;;6184542;23;20048;-72
2022/03/16 02:46:01;;;;;;;54.30;27.90;;;3.00;99.90;;;;;;6209682;23;20024;-72
2022/03/16 02:48:27;;;;;;;61.55;29.00;;;3.10;99.90;;;;;;6184529;23;20502;-72
2022/03/16 02:50:52;;;;;;;102.40;32.03;;;2.90;99.90;;;;;;6184228;23;20024;-72
2022/03/16 02:53:18;;;;;;;81.13;24.73;;;2.80;99.90;;;;;;6184677;23;20026;-72
2022/03/16 02:55:45;;;;;;;177.45;25.90;;;2.80;99.90;;;;;;6184351;23;20353;-72
2022/03/16 02:58:11;;;;;;;215.35;32.30;;;2.70;99.90;;;;;;6159818;23;20440;-72
2022/03/16 03:00:37;;;;;;;578.28;61.30;;;2.60;99.90;;;;;;6184040;23;20099;-72
2022/03/16 03:03:03;;;;;;;331.02;41.60;;;2.60;99.90;;;;;;6183893;23;20352;-72
2022/03/16 03:05:29;;;;;;;432.45;37.55;;;2.50;99.90;;;;;;6184471;23;20079;-72
2022/03/16 03:07:54;;;;;;;294.75;32.95;;;2.50;99.90;;;;;;6210558;23;20051;-72
2022/03/16 03:10:20;;;;;;;437.95;39.05;;;2.50;99.90;;;;;;6159739;23;20024;-72
2022/03/16 03:12:46;;;;;;;529.15;55.80;;;2.40;99.90;;;;;;6184212;23;20095;-72
2022/03/16 03:15:15;;;;;;;253.05;28.65;;;2.40;99.90;;;;;;6183748;23;20013;-72
2022/03/16 03:17:42;;;;;;;226.18;25.27;;;2.40;99.90;;;;;;6184310;23;20019;-72
2022/03/16 03:20:09;;;;;;;136.40;22.48;;;2.30;99.90;;;;;;6184311;23;20042;-72
2022/03/16 03:22:36;;;;;;;437.48;32.70;;;2.30;99.90;;;;;;6184034;23;20470;-72
2022/03/16 03:25:02;;;;;;;407.83;33.42;;;2.20;99.90;;;;;;6184133;23;20063;-72
2022/03/16 03:27:30;;;;;;;368.02;42.30;;;2.20;99.90;;;;;;6211011;23;20044;-72
2022/03/16 03:29:56;;;;;;;274.50;28.75;;;2.20;99.90;;;;;;6184798;23;20021;-72
2022/03/16 03:32:22;;;;;;;242.70;28.08;;;2.20;99.90;;;;;;6183689;23;20019;-72
2022/03/16 03:34:51;;;;;;;159.73;26.15;;;2.20;99.90;;;;;;6184253;23;20017;-72
2022/03/16 03:37:18;;;;;;;423.77;57.13;;;2.20;99.90;;;;;;6159201;23;20341;-72
2022/03/16 03:39:45;;;;;;;265.40;36.25;;;2.40;99.90;;;;;;6184646;23;20020;-72
2022/03/16 03:42:11;;;;;;;270.08;29.73;;;2.10;99.90;;;;;;6209324;23;20092;-72
2022/03/16 03:44:37;;;;;;;201.43;32.03;;;2.10;99.90;;;;;;6159279;23;20027;-72
2022/03/16 03:47:05;;;;;;;320.88;37.40;;;2.50;99.90;;;;;;6183723;23;20096;-72
2022/03/16 03:49:36;;;;;;;182.52;26.80;;;2.10;99.90;;;;;;6134870;23;20364;-72
2022/03/16 03:52:03;;;;;;;311.63;33.17;;;2.10;99.90;;;;;;6211150;23;20016;-72
2022/03/16 03:54:28;;;;;;;300.85;33.55;;;2.10;99.90;;;;;;6184004;23;20013;-72
2022/03/16 03:56:54;;;;;;;274.90;29.33;;;2.10;99.90;;;;;;6184803;23;20008;-73
2022/03/16 03:59:20;;;;;;;224.57;27.60;;;2.10;99.90;;;;;;6184123;23;20024;-72
2022/03/16 04:01:46;;;;;;;323.63;35.38;;;2.00;99.90;;;;;;6183736;23;20017;-72
2022/03/16 04:04:12;;;;;;;314.02;37.55;;;2.10;99.90;;;;;;6183517;23;20020;-72
2022/03/16 04:06:38;;;;;;;375.80;34.53;;;2.00;99.90;;;;;;6184075;23;20029;-72
2022/03/16 04:09:04;;;;;;;362.05;43.45;;;2.00;99.90;;;;;;6183972;23;20083;-72
2022/03/16 04:11:31;;;;;;;278.52;33.63;;;2.00;99.90;;;;;;6184203;23;20565;-72
2022/03/16 04:13:57;;;;;;;454.30;65.45;;;2.00;99.90;;;;;;6183881;23;20017;-72
2022/03/16 04:16:22;;;;;;;263.13;32.53;;;2.00;99.90;;;;;;6184080;23;20088;-72
2022/03/16 04:18:48;;;;;;;117.05;27.10;;;1.90;99.90;;;;;;6186567;23;20063;-72
2022/03/16 04:21:14;;;;;;;128.88;23.35;;;1.90;99.90;;;;;;6185835;23;20025;-72
2022/03/16 04:23:39;;;;;;;180.95;24.60;;;1.90;99.90;;;;;;6185770;23;20016;-72
2022/03/16 04:26:05;;;;;;;144.00;26.00;;;1.90;99.90;;;;;;6185910;23;20123;-72
2022/03/16 04:28:31;;;;;;;104.93;24.85;;;1.90;99.90;;;;;;6185886;23;20024;-72
2022/03/16 04:30:56;;;;;;;328.98;40.63;;;1.90;99.90;;;;;;6203703;23;20016;-72
2022/03/16 04:33:22;;;;;;;383.45;52.10;;;1.90;99.90;;;;;;6215985;23;20012;-72
2022/03/16 04:35:48;;;;;;;280.40;37.05;;;2.00;99.90;;;;;;6241782;23;20056;-72
2022/03/16 04:38:14;;;;;;;324.33;36.05;;;1.90;99.90;;;;;;6205683;23;20017;-72
2022/03/16 04:40:39;;;;;;;301.60;41.10;;;2.00;99.90;;;;;;6185832;23;20021;-72
2022/03/16 04:43:05;;;;;;;378.00;49.97;;;2.00;99.90;;;;;;6186112;23;20047;-72
2022/03/16 04:45:31;;;;;;;140.13;28.50;;;1.90;99.90;;;;;;6136381;23;20021;-72
2022/03/16 04:47:56;;;;;;;300.73;48.70;;;1.90;99.90;;;;;;6161196;23;20217;-72
2022/03/16 04:50:22;;;;;;;114.30;25.50;;;1.90;99.90;;;;;;6185125;23;20098;-72
2022/03/16 04:52:49;;;;;;;121.03;24.00;;;1.90;99.90;;;;;;6185645;23;20086;-72
2022/03/16 04:55:16;;;;;;;129.45;27.27;;;1.80;99.90;;;;;;6185347;23;20013;-72
2022/03/16 04:57:41;;;;;;;133.98;25.75;;;1.80;99.90;;;;;;6185708;23;20027;-72
2022/03/16 05:00:08;;;;;;;98.95;25.20;;;1.80;99.90;;;;;;6185442;23;20017;-72
2022/03/16 05:02:34;;;;;;;136.10;30.77;;;1.70;99.90;;;;;;6185368;23;20017;-72
2022/03/16 05:05:00;;;;;;;144.40;30.58;;;1.70;99.90;;;;;;6185284;23;20291;-72
2022/03/16 05:07:26;;;;;;;159.25;35.38;;;1.70;99.90;;;;;;6165233;23;20021;-72
2022/03/16 05:09:52;;;;;;;74.10;23.15;;;1.60;99.90;;;;;;6152020;23;20024;-72
2022/03/16 05:12:17;;;;;;;80.22;22.65;;;1.60;99.90;;;;;;6153999;23;20017;-72
2022/03/16 05:14:43;;;;;;;106.68;26.52;;;1.60;99.90;;;;;;6155238;23;20017;-72
2022/03/16 05:17:09;;;;;;;71.53;22.67;;;1.60;99.90;;;;;;6178956;23;20448;-72
2022/03/16 05:19:34;;;;;;;103.97;25.25;;;1.70;99.90;;;;;;6151887;23;20095;-72
2022/03/16 05:22:00;;;;;;;164.75;32.00;;;1.50;99.90;;;;;;6178516;23;20021;-72
2022/03/16 05:24:26;;;;;;;218.48;36.97;;;1.50;99.90;;;;;;6179569;23;20032;-72
2022/03/16 05:26:53;;;;;;;222.32;35.42;;;1.40;99.90;;;;;;6155767;23;20028;-72
2022/03/16 05:29:18;;;;;;;134.68;29.20;;;1.40;99.90;;;;;;6180311;23;20460;-72
2022/03/16 05:31:44;;;;;;;147.02;32.78;;;1.40;99.90;;;;;;6154901;23;20096;-72
2022/03/16 05:34:10;;;;;;;193.23;38.97;;;1.40;99.90;;;;;;6154628;23;20119;-72
2022/03/16 05:36:36;;;;;;;131.30;37.80;;;1.40;99.90;;;;;;6180554;23;20519;-71
2022/03/16 05:39:04;;;;;;;172.75;37.55;;;1.50;99.90;;;;;;6179806;23;20013;-72
2022/03/16 05:41:30;;;;;;;284.00;57.55;;;1.60;99.90;;;;;;6155516;23;20021;-72
2022/03/16 05:43:56;;;;;;;156.73;39.53;;;1.60;99.90;;;;;;6155169;23;20076;-72
2022/03/16 05:46:21;;;;;;;204.23;44.88;;;1.70;99.90;;;;;;6180114;23;20017;-72
2022/03/16 05:48:47;;;;;;;229.80;51.15;;;1.70;99.90;;;;;;6155707;23;20021;-72
2022/03/16 05:51:13;;;;;;;218.68;46.78;;;1.70;99.90;;;;;;6179671;23;20047;-72
2022/03/16 05:53:39;;;;;;;238.65;56.33;;;1.70;99.90;;;;;;6129860;23;20449;-72
2022/03/16 05:56:05;;;;;;;126.32;38.03;;;1.90;99.90;;;;;;6179459;23;20017;-72
2022/03/16 05:58:31;;;;;;;162.85;37.50;;;1.80;99.90;;;;;;6180308;23;20459;-72
2022/03/16 06:00:56;;;;;;;145.55;39.40;;;1.80;99.90;;;;;;6154718;23;20348;-72
2022/03/16 06:03:22;;;;;;;116.60;39.67;;;1.80;99.90;;;;;;6179927;23;20021;-72
2022/03/16 06:05:48;;;;;;;180.48;50.28;;;1.80;99.90;;;;;;6180131;23;20552;-71
2022/03/16 06:08:14;;;;;;;116.70;36.63;;;1.80;99.90;;;;;;6185533;23;20106;-72
2022/03/16 06:10:40;;;;;;;78.45;32.92;;;1.90;99.90;;;;;;6184494;23;20042;-72
2022/03/16 06:13:07;;;;;;;66.07;32.65;;;1.80;99.90;;;;;;6185443;23;20016;-72
2022/03/16 06:15:41;;;;;;;86.60;39.88;;;1.90;99.90;;;;;;6211273;23;20023;-72
2022/03/16 06:18:08;;;;;;;86.20;38.58;;;2.10;99.90;;;;;;6184533;23;20576;-73
2022/03/16 06:20:35;;;;;;;81.97;38.08;;;2.10;99.90;;;;;;6185101;23;20017;-72
2022/03/16 06:23:00;;;;;;;94.50;39.80;;;2.20;99.90;;;;;;6209923;23;20106;-72
2022/03/16 06:25:26;;;;;;;69.90;36.03;;;2.20;99.90;;;;;;6184569;23;20406;-72
2022/03/16 06:27:53;;;;;;;81.30;39.53;;;2.40;99.90;;;;;;6160340;23;20047;-72
2022/03/16 06:30:19;;;;;;;59.72;32.47;;;2.20;99.90;;;;;;6184473;23;20020;-72
2022/03/16 06:32:45;;;;;;;73.18;35.78;;;2.30;99.90;;;;;;6184639;23;20012;-72
2022/03/16 06:35:12;;;;;;;81.25;38.20;;;2.30;99.90;;;;;;6183832;23;20020;-72
2022/03/16 06:37:38;;;;;;;83.30;40.20;;;2.30;99.90;;;;;;6184651;23;20023;-72
2022/03/16 06:40:05;;;;;;;87.57;39.72;;;2.50;99.90;;;;;;6184243;23;20527;-71
2022/03/16 06:42:31;;;;;;;79.63;40.50;;;2.50;99.90;;;;;;6185030;23;20416;-72
2022/03/16 06:44:57;;;;;;;91.25;40.90;;;2.60;99.90;;;;;;6184443;23;20020;-72
2022/03/16 06:47:23;;;;;;;86.50;40.33;;;2.70;99.90;;;;;;6184405;23;20016;-72
2022/03/16 06:49:48;;;;;;;78.88;39.38;;;2.80;99.90;;;;;;6184582;23;20082;-71
2022/03/16 06:52:14;;;;;;;86.28;40.85;;;3.00;99.90;;;;;;6184588;23;20509;-73
2022/03/16 06:54:41;;;;;;;75.68;37.55;;;3.10;99.90;;;;;;6211161;23;20017;-72
2022/03/16 06:57:07;;;;;;;91.05;41.05;;;3.30;99.90;;;;;;6159524;23;20526;-72
2022/03/16 06:59:32;;;;;;;82.03;39.63;;;3.30;99.90;;;;;;6184424;23;20510;-72
2022/03/16 07:01:58;;;;;;;77.20;38.00;;;3.40;99.90;;;;;;6184182;23;20017;-72
2022/03/16 07:04:24;;;;;;;66.80;35.50;;;3.50;99.90;;;;;;6210774;23;20372;-72
2022/03/16 07:06:50;;;;;;;66.78;34.60;;;3.50;99.90;;;;;;6171255;23;20028;-72
2022/03/16 07:09:16;;;;;;;62.97;33.22;;;3.50;99.90;;;;;;6154761;23;20024;-71
2022/03/16 07:11:42;;;;;;;59.45;34.30;;;3.60;99.90;;;;;;6154398;23;20024;-72
2022/03/16 07:16:52;;;;;;;63.08;34.58;;;3.50;99.90;;;;;;6154453;23;20512;-72
2022/03/16 07:19:18;;;;;;;57.92;33.10;;;3.60;99.90;;;;;;6179817;23;20044;-72
2022/03/16 07:21:43;;;;;;;53.17;31.80;;;3.60;99.90;;;;;;6179132;23;20100;-72
2022/03/16 07:24:10;;;;;;;56.90;31.05;;;3.60;99.90;;;;;;6154726;23;20045;-72
2022/03/16 07:26:36;;;;;;;53.47;30.52;;;3.60;99.90;;;;;;6179122;23;20021;-72
2022/03/16 07:29:01;;;;;;;48.63;30.95;;;3.70;99.90;;;;;;6129858;23;20433;-72
2022/03/16 07:31:28;;;;;;;56.10;31.50;;;3.70;99.90;;;;;;6154079;23;20021;-72
2022/03/16 07:33:54;;;;;;;49.00;30.27;;;3.80;99.90;;;;;;6154632;23;20023;-72
2022/03/16 07:36:19;;;;;;;59.28;31.98;;;3.80;99.90;;;;;;6129710;23;20048;-72
2022/03/16 07:38:46;;;;;;;53.33;31.00;;;3.90;99.90;;;;;;6179016;23;20064;-72
2022/03/16 07:41:11;;;;;;;53.33;33.25;;;4.00;99.90;;;;;;6154366;23;20095;-72
2022/03/16 07:43:37;;;;;;;55.03;32.75;;;4.20;99.90;;;;;;6179907;23;20025;-72
2022/03/16 07:46:03;;;;;;;60.95;34.22;;;4.40;99.90;;;;;;6155031;23;20028;-72
2022/03/16 07:48:29;;;;;;;52.40;32.35;;;4.60;99.90;;;;;;6155369;23;20104;-72
2022/03/16 07:50:55;;;;;;;53.92;31.60;;;4.70;99.90;;;;;;6154904;23;20095;-72
2022/03/16 07:53:21;;;;;;;53.05;31.48;;;4.90;99.90;;;;;;6153484;23;20461;-72
2022/03/16 07:55:48;;;;;;;50.60;31.25;;;5.20;99.90;;;;;;6178691;23;20013;-72
2022/03/16 07:58:14;;;;;;;54.30;33.17;;;5.40;99.90;;;;;;6178998;23;20017;-72
2022/03/16 08:00:39;;;;;;;49.88;29.77;;;5.70;99.90;;;;;;6178815;23;20072;-72
2022/03/16 08:03:05;;;;;;;48.10;31.20;;;5.80;99.90;;;;;;6179075;23;20028;-72
2022/03/16 08:05:31;;;;;;;43.05;28.15;;;5.90;99.90;;;;;;6179203;23;20172;-72
2022/03/16 08:07:57;;;;;;;45.60;28.85;;;5.90;99.90;;;;;;6153809;23;20056;-72
2022/03/16 08:10:23;;;;;;;45.00;28.05;;;6.00;99.90;;;;;;6181305;23;20449;-72
2022/03/16 08:12:49;;;;;;;48.88;28.95;;;6.10;99.90;;;;;;6151741;23;20445;-73
2022/03/16 08:15:15;;;;;;;44.83;29.00;;;6.20;99.90;;;;;;6117974;23;20017;-72
2022/03/16 08:17:40;;;;;;;42.35;27.67;;;6.40;99.90;;;;;;6147278;23;20396;-72
2022/03/16 08:20:07;;;;;;;45.88;27.25;;;6.60;99.90;;;;;;6123279;23;20231;-72
2022/03/16 08:22:34;;;;;;;40.38;26.33;;;6.80;99.90;;;;;;6172844;23;20080;-72
2022/03/16 08:25:02;;;;;;;43.75;27.60;;;6.90;99.90;;;;;;6147643;23;20096;-72
2022/03/16 08:27:28;;;;;;;43.78;26.73;;;7.10;99.90;;;;;;6147227;23;20025;-72
2022/03/16 08:29:55;;;;;;;38.45;24.92;;;7.40;99.90;;;;;;6146481;23;20424;-72
2022/03/16 08:32:22;;;;;;;38.42;23.55;;;8.00;99.90;;;;;;6168113;23;20040;-73
2022/03/16 08:34:47;;;;;;;39.92;23.63;;;8.60;99.90;;;;;;6145802;23;20555;-73
2022/03/16 08:37:13;;;;;;;37.78;23.45;;;9.10;99.90;;;;;;6172172;23;20017;-73
2022/03/16 08:39:40;;;;;;;34.85;23.33;;;9.80;99.90;;;;;;6167544;23;20437;-73
2022/03/16 08:42:08;;;;;;;38.55;24.20;;;10.50;99.90;;;;;;6168678;23;20449;-73
2022/03/16 08:44:35;;;;;;;32.00;21.83;;;11.20;99.90;;;;;;6171856;23;20412;-73
2022/03/16 08:47:01;;;;;;;27.80;20.40;;;11.80;99.90;;;;;;6147313;23;20049;-72
2022/03/16 08:49:29;;;;;;;31.70;20.50;;;12.30;99.90;;;;;;6173829;23;20416;-71
2022/03/16 08:51:57;;;;;;;36.83;21.65;;;12.30;99.90;;;;;;6147776;23;20023;-72
2022/03/16 08:54:23;;;;;;;27.27;20.08;;;12.50;99.90;;;;;;6172465;23;20090;-72
2022/03/16 08:56:49;;;;;;;32.70;21.20;;;12.70;99.90;;;;;;6174767;23;20067;-72
2022/03/16 08:59:15;;;;;;;27.92;19.50;;;13.30;99.90;;;;;;6147402;23;20397;-72
2022/03/16 09:01:41;;;;;;;25.98;18.00;;;13.60;99.90;;;;;;6172369;23;20021;-72
2022/03/16 09:04:07;;;;;;;27.30;19.40;;;13.40;99.90;;;;;;6175105;23;20027;-72
2022/03/16 09:06:32;;;;;;;25.15;17.60;;;13.70;99.90;;;;;;6177177;23;20025;-72
2022/03/16 09:08:58;;;;;;;27.48;18.45;;;14.10;99.90;;;;;;6205594;23;20152;-73
2022/03/16 09:11:24;;;;;;;22.30;16.60;;;14.40;99.90;;;;;;6206388;23;20060;-72
2022/03/16 09:13:50;;;;;;;19.30;16.17;;;14.60;99.90;;;;;;6187042;23;20043;-76
2022/03/16 09:16:17;;;;;;;22.10;16.77;;;14.90;99.90;;;;;;6182940;23;20035;-77
2022/03/16 09:18:44;;;;;;;21.33;15.73;;;14.90;99.90;;;;;;6206230;23;20013;-77
2022/03/16 09:21:11;;;;;;;18.92;15.52;;;14.90;99.90;;;;;;6209729;23;20055;-77
2022/03/16 09:23:36;;;;;;;19.80;14.88;;;14.50;99.90;;;;;;6155955;23;20060;-77
2022/03/16 09:26:03;;;;;;;21.25;14.82;;;14.70;99.90;;;;;;6155411;23;20028;-77
2022/03/16 09:28:28;;;;;;;20.88;15.35;;;15.00;99.90;;;;;;6155363;23;20405;-77
2022/03/16 09:30:54;;;;;;;20.65;14.55;;;15.30;99.90;;;;;;6180388;23;20020;-77
2022/03/16 09:33:23;;;;;;;19.02;13.52;;;15.30;99.90;;;;;;6181665;23;20021;-77
2022/03/16 09:35:52;;;;;;;17.58;13.45;;;15.70;99.90;;;;;;6179588;23;20091;-77
2022/03/16 09:38:19;;;;;;;16.17;13.45;;;15.50;98.70;;;;;;6211110;23;20040;-77
2022/03/16 09:40:49;;;;;;;18.42;13.45;;;15.40;98.50;;;;;;6210670;23;20020;-78
2022/03/16 09:43:18;;;;;;;21.02;12.77;;;14.90;98.30;;;;;;6186596;23;20361;-78
2022/03/16 09:46:08;;;;;;;15.90;11.35;;;15.40;99.30;;;;;;6210966;23;20017;-78
2022/03/16 09:48:34;;;;;;;16.80;11.10;;;16.10;97.70;;;;;;6185824;23;20023;-79
2022/03/16 09:51:00;;;;;;;14.57;10.90;;;16.30;96.30;;;;;;6185704;23;20017;-79
2022/03/16 09:53:26;;;;;;;14.63;11.10;;;16.40;95.80;;;;;;6185588;23;20027;-79
2022/03/16 09:55:55;;;;;;;15.80;10.68;;;15.90;95.00;;;;;;6185266;23;20479;-79
2022/03/16 09:58:22;;;;;;;15.90;10.88;;;15.60;94.70;;;;;;6186191;23;20079;-79
2022/03/16 10:00:48;;;;;;;14.93;11.20;;;15.40;94.50;;;;;;6185411;23;20229;-79
2022/03/16 10:03:17;;;;;;;18.83;12.10;;;15.40;94.90;;;;;;6185903;23;20024;-79
2022/03/16 10:05:46;;;;;;;19.73;11.93;;;15.50;94.30;;;;;;6185364;23;20027;-79
2022/03/16 10:08:14;;;;;;;17.55;12.27;;;15.70;94.50;;;;;;6161575;23;20028;-79
2022/03/16 10:13:26;;;;;;;15.93;11.35;;;15.90;94.80;;;;;;6156318;23;20016;-79
2022/03/16 10:15:55;;;;;;;18.08;13.40;;;15.70;93.40;;;;;;6180175;23;20028;-79
2022/03/16 10:18:23;;;;;;;16.42;11.88;;;16.20;94.50;;;;;;6131328;23;20028;-79
2022/03/16 10:20:51;;;;;;;17.88;12.80;;;16.70;94.10;;;;;;6154837;23;20028;-80
2022/03/16 10:23:24;;;;;;;19.55;12.18;;;16.50;92.40;;;;;;6179593;23;20028;-82
2022/03/16 10:25:52;;;;;;;17.13;12.20;;;16.80;92.90;;;;;;6129952;23;20021;-82
2022/03/16 10:28:24;;;;;;;31.65;13.02;;;16.90;92.30;;;;;;6130271;23;20017;-82
2022/03/16 10:31:03;;;;;;;17.30;12.68;;;16.80;92.40;;;;;;6179176;23;20021;-81
2022/03/16 10:33:33;;;;;;;17.92;12.52;;;17.30;91.40;;;;;;6155117;23;20071;-82
2022/03/16 10:36:11;;;;;;;18.38;11.57;;;16.90;90.80;;;;;;6154855;23;20047;-81
2022/03/16 10:38:41;;;;;;;18.83;12.93;;;16.40;90.30;;;;;;6155745;23;20017;-82
2022/03/16 10:41:13;;;;;;;21.70;12.88;;;16.00;91.50;;;;;;6154308;23;20039;-81
2022/03/16 10:46:38;;;;;;;19.67;12.43;;;15.70;92.40;;;;;;6154796;23;20401;-81
2022/03/16 10:49:06;;;;;;;20.55;12.75;;;15.20;93.00;;;;;;6146062;23;20724;-80
2022/03/16 10:51:33;;;;;;;16.98;12.00;;;15.30;92.50;;;;;;6147764;23;20425;-81
2022/03/16 10:54:02;;;;;;;17.45;11.95;;;14.70;92.40;;;;;;6148004;23;20096;-80
2022/03/16 10:56:28;;;;;;;17.23;11.45;;;14.50;92.50;;;;;;6147952;23;20017;-81
2022/03/16 10:58:54;;;;;;;19.90;11.15;;;14.20;92.50;;;;;;6124115;23;20400;-81
2022/03/16 11:01:22;;;;;;;16.05;11.23;;;14.70;93.30;;;;;;6172569;23;20025;-81
2022/03/16 11:03:50;;;;;;;18.42;11.02;;;14.90;93.20;;;;;;6123036;23;20021;-81
2022/03/16 11:06:20;;;;;;;14.52;9.55;;;15.10;93.00;;;;;;6122678;23;20080;-81
2022/03/16 11:08:50;;;;;;;14.60;10.27;;;15.00;92.10;;;;;;6148082;23;20024;-81
2022/03/16 11:14:04;;;;;;;17.70;11.38;;;14.60;91.20;;;;;;6126973;23;20021;-81
2022/03/16 11:16:33;;;;;;;16.20;10.80;;;14.90;91.70;;;;;;6122831;23;20083;-81
2022/03/16 11:19:04;;;;;;;17.77;10.63;;;15.20;91.10;;;;;;6146698;23;20052;-81
2022/03/16 11:21:58;;;;;;;17.63;10.60;;;15.60;90.40;;;;;;6146532;23;20040;-81
2022/03/16 11:24:26;;;;;;;18.75;11.55;;;15.80;90.80;;;;;;6136844;23;20511;-80
2022/03/16 11:27:09;;;;;;;14.70;10.00;;;15.60;90.80;;;;;;6147148;23;20211;-81
2022/03/16 11:29:53;;;;;;;14.63;10.30;;;15.70;91.10;;;;;;6148649;23;20425;-80
2022/03/16 11:32:20;;;;;;;18.42;11.77;;;15.70;91.00;;;;;;6147147;23;20071;-80
2022/03/16 11:34:48;;;;;;;17.90;11.65;;;15.60;90.90;;;;;;6123650;23;20048;-81
2022/03/16 11:37:14;;;;;;;18.33;11.13;;;15.60;91.10;;;;;;6173367;23;20016;-80
2022/03/16 11:39:46;;;;;;;18.50;11.73;;;15.60;91.20;;;;;;6147212;23;20017;-81
2022/03/16 11:42:17;;;;;;;22.02;12.43;;;15.60;91.10;;;;;;6147483;23;20063;-81
2022/03/16 11:44:43;;;;;;;18.98;12.25;;;15.40;90.60;;;;;;6147707;23;20021;-82
2022/03/16 11:47:16;;;;;;;20.42;12.55;;;15.30;90.70;;;;;;6122690;23;20017;-81
2022/03/16 11:50:02;;;;;;;18.90;12.68;;;15.30;91.20;;;;;;6172529;23;20033;-82
2022/03/16 11:52:55;;;;;;;17.50;11.48;;;15.50;91.60;;;;;;6126210;23;20459;-80
2022/03/16 11:55:39;;;;;;;21.15;12.73;;;15.60;91.20;;;;;;6154569;23;20013;-80
2022/03/16 11:58:25;;;;;;;21.55;12.40;;;15.80;90.70;;;;;;6154332;23;20055;-81
2022/03/16 12:01:12;;;;;;;18.88;11.73;;;15.70;90.90;;;;;;6129481;23;20178;-81
2022/03/16 12:03:44;;;;;;;18.63;11.68;;;15.60;90.80;;;;;;6154514;23;20525;-81
2022/03/16 12:06:10;;;;;;;20.30;13.05;;;15.70;91.00;;;;;;6154436;23;20461;-81
2022/03/16 12:09:02;;;;;;;21.70;13.88;;;15.60;90.10;;;;;;6153635;23;20031;-78
2022/03/16 12:15:19;;;;;;;18.52;12.32;;;15.60;91.30;;;;;;6153866;23;20100;-79
2022/03/16 12:17:59;;;;;;;22.13;13.75;;;15.40;90.40;;;;;;6179265;23;20057;-79
2022/03/16 12:20:31;;;;;;;17.77;12.02;;;15.70;90.00;;;;;;6179396;23;20457;-79
2022/03/16 12:23:12;;;;;;;20.60;13.25;;;15.70;90.40;;;;;;6179270;23;20040;-80
2022/03/16 12:25:46;;;;;;;19.90;12.05;;;15.90;90.10;;;;;;6154490;23;20021;-81
2022/03/16 12:31:16;;;;;;;20.10;12.27;;;15.20;87.90;;;;;;6154577;23;20021;-80
2022/03/16 12:33:45;;;;;;;23.60;12.75;;;15.40;89.70;;;;;;6179375;23;20392;-83
2022/03/16 12:36:21;;;;;;;19.35;12.40;;;15.60;89.50;;;;;;6154929;23;20044;-81
2022/03/16 12:38:55;;;;;;;18.83;12.98;;;15.90;90.00;;;;;;6155763;23;20013;-82
2022/03/16 12:44:12;;;;;;;20.70;12.70;;;16.20;89.00;;;;;;6155863;23;20029;-82
2022/03/16 12:46:43;;;;;;;21.10;13.52;;;16.10;87.60;;;;;;6131627;23;20461;-82
2022/03/16 12:49:11;;;;;;;20.70;13.07;;;16.10;86.90;;;;;;6155527;23;20017;-82
2022/03/16 12:51:40;;;;;;;19.67;12.70;;;15.90;87.30;;;;;;6157053;23;20021;-81
2022/03/16 12:54:07;;;;;;;16.77;11.93;;;16.00;87.30;;;;;;6155827;23;20047;-80